createdAt,value
2018-07-30T00:00:58.961Z,60.78
2018-07-30T00:03:25.944Z,60.85
2018-07-30T00:05:53.114Z,60.67
2018-07-30T00:08:20.161Z,60.71
2018-07-30T00:10:47.134Z,61.21
2018-07-30T00:13:14.105Z,61.95
2018-07-30T00:15:41.110Z,61.36
2018-07-30T00:18:08.104Z,62.04
2018-07-30T00:20:35.093Z,61.76
2018-07-30T00:23:02.097Z,61.87
2018-07-30T00:25:29.117Z,62.38
2018-07-30T00:27:56.081Z,61.92
2018-07-30T00:30:23.161Z,61.86
2018-07-30T00:32:50.257Z,62.65
2018-07-30T00:35:17.273Z,62.15
2018-07-30T00:37:44.253Z,61.69
2018-07-30T00:40:15.223Z,62.06
2018-07-30T00:42:43.319Z,62.35
2018-07-30T00:45:10.650Z,62.25
2018-07-30T00:47:37.613Z,62.61
2018-07-30T00:50:04.826Z,61.85
2018-07-30T00:52:31.905Z,61.84
2018-07-30T00:54:59.003Z,61.84
2018-07-30T00:57:25.924Z,62.52
2018-07-30T00:59:52.905Z,62.14
2018-07-30T01:02:19.892Z,62.56
2018-07-30T01:04:46.909Z,61.91
2018-07-30T01:07:14.209Z,62.65
2018-07-30T01:09:41.233Z,62.55
2018-07-30T01:12:08.225Z,62.89
2018-07-30T01:14:35.375Z,62.23
2018-07-30T01:17:02.358Z,62.35
2018-07-30T01:19:29.393Z,62.85
2018-07-30T01:21:56.374Z,63.17
2018-07-30T01:24:23.629Z,63.23
2018-07-30T01:26:50.605Z,64.01
2018-07-30T01:29:17.610Z,64.05
2018-07-30T01:31:44.600Z,63.75
2018-07-30T01:34:11.621Z,63.37
2018-07-30T01:36:38.597Z,64.16
2018-07-30T01:39:06.878Z,63.95
2018-07-30T01:41:33.885Z,63.70
2018-07-30T01:44:00.870Z,63.98
2018-07-30T01:46:27.892Z,64.61
2018-07-30T01:48:54.854Z,64.71
2018-07-30T01:51:21.861Z,64.28
2018-07-30T01:53:48.954Z,64.12
2018-07-30T01:58:42.478Z,65.09
2018-07-30T02:01:09.654Z,65.07
2018-07-30T02:03:36.694Z,64.80
2018-07-30T02:06:03.737Z,64.87
2018-07-30T02:08:30.795Z,65.41
2018-07-30T02:10:57.793Z,65.65
2018-07-30T02:13:24.773Z,64.70
2018-07-30T02:15:51.825Z,65.54
2018-07-30T02:18:18.789Z,65.04
2018-07-30T02:20:45.887Z,65.40
2018-07-30T02:23:12.886Z,65.54
2018-07-30T02:25:39.973Z,64.83
2018-07-30T02:28:07.091Z,65.17
2018-07-30T02:30:34.137Z,65.49
2018-07-30T02:33:01.089Z,65.82
2018-07-30T02:35:28.098Z,65.02
2018-07-30T02:37:55.137Z,65.14
2018-07-30T02:40:22.201Z,65.65
2018-07-30T02:42:49.197Z,66.56
2018-07-30T02:45:16.189Z,66.65
2018-07-30T02:47:43.153Z,66.30
2018-07-30T02:50:10.146Z,66.37
2018-07-30T02:52:37.153Z,66.71
2018-07-30T02:55:04.172Z,66.21
2018-07-30T02:57:31.222Z,66.61
2018-07-30T02:59:58.176Z,66.95
2018-07-30T03:02:25.168Z,66.78
2018-07-30T03:04:52.158Z,66.95
2018-07-30T03:07:19.434Z,67.14
2018-07-30T03:09:46.397Z,67.31
2018-07-30T03:12:13.398Z,66.68
2018-07-30T03:14:40.393Z,67.43
2018-07-30T03:17:07.930Z,67.64
2018-07-30T03:19:34.915Z,67.69
2018-07-30T03:22:01.944Z,67.74
2018-07-30T03:24:28.937Z,67.63
2018-07-30T03:26:55.929Z,68.49
2018-07-30T03:29:22.920Z,67.93
2018-07-30T03:31:49.921Z,68.11
2018-07-30T03:34:16.954Z,67.91
2018-07-30T03:36:43.972Z,67.72
2018-07-30T03:39:10.965Z,67.43
2018-07-30T03:41:38.077Z,67.35
2018-07-30T03:44:05.293Z,67.86
2018-07-30T03:46:32.351Z,67.16
2018-07-30T03:48:59.418Z,67.14
2018-07-30T03:51:26.421Z,67.28
2018-07-30T03:53:53.473Z,68.04
2018-07-30T03:56:20.792Z,67.37
2018-07-30T03:58:47.761Z,67.72
2018-07-30T04:01:14.778Z,67.62
2018-07-30T04:03:41.749Z,68.25
2018-07-30T04:06:08.823Z,67.73
2018-07-30T04:08:35.977Z,67.86
2018-07-30T04:11:03.012Z,67.86
2018-07-30T04:13:29.989Z,67.43
2018-07-30T04:15:57.001Z,66.96
2018-07-30T04:18:24.009Z,67.39
2018-07-30T04:20:51.005Z,66.56
2018-07-30T04:23:18.005Z,67.01
2018-07-30T04:25:44.994Z,65.91
2018-07-30T04:28:12.002Z,66.45
2018-07-30T04:30:39.008Z,65.94
2018-07-30T04:33:06.117Z,66.20
2018-07-30T04:35:33.085Z,66.76
2018-07-30T04:38:00.066Z,66.16
2018-07-30T04:40:27.049Z,66.05
2018-07-30T04:42:54.062Z,65.98
2018-07-30T04:45:21.045Z,65.62
2018-07-30T04:47:48.185Z,66.10
2018-07-30T04:50:15.188Z,65.58
2018-07-30T04:52:42.189Z,65.84
2018-07-30T04:55:09.214Z,65.56
2018-07-30T04:57:36.204Z,65.50
2018-07-30T05:00:03.749Z,64.64
2018-07-30T05:02:30.741Z,65.33
2018-07-30T05:04:57.714Z,64.42
2018-07-30T05:07:24.753Z,64.61
2018-07-30T05:09:51.992Z,64.08
2018-07-30T05:12:19.004Z,64.52
2018-07-30T05:14:45.989Z,64.05
2018-07-30T05:17:12.965Z,64.13
2018-07-30T05:19:39.972Z,64.18
2018-07-30T05:22:07.041Z,63.45
2018-07-30T05:24:34.041Z,63.37
2018-07-30T05:27:01.066Z,64.01
2018-07-30T05:29:28.092Z,63.57
2018-07-30T05:31:55.080Z,62.42
2018-07-30T05:34:22.045Z,63.22
2018-07-30T05:36:49.070Z,62.54
2018-07-30T05:39:16.037Z,62.13
2018-07-30T05:41:43.033Z,62.17
2018-07-30T05:44:10.058Z,62.08
2018-07-30T05:46:37.049Z,61.35
2018-07-30T05:49:04.290Z,61.09
2018-07-30T05:51:31.289Z,60.88
2018-07-30T05:53:58.289Z,61.06
2018-07-30T05:56:25.281Z,61.15
2018-07-30T05:58:52.274Z,61.22
2018-07-30T06:01:19.248Z,61.04
2018-07-30T06:03:46.297Z,60.37
2018-07-30T06:06:13.269Z,60.41
2018-07-30T06:08:40.278Z,59.78
2018-07-30T06:11:07.270Z,59.43
2018-07-30T06:13:34.257Z,59.70
2018-07-30T06:16:01.242Z,60.17
2018-07-30T06:18:28.245Z,60.08
2018-07-30T06:20:55.415Z,59.46
2018-07-30T06:23:22.406Z,59.57
2018-07-30T06:25:49.430Z,59.71
2018-07-30T06:28:16.467Z,59.57
2018-07-30T06:30:43.561Z,60.30
2018-07-30T06:33:10.569Z,59.91
2018-07-30T06:35:37.583Z,60.18
2018-07-30T06:38:04.585Z,60.67
2018-07-30T06:40:31.556Z,60.54
2018-07-30T06:42:58.549Z,60.76
2018-07-30T06:45:25.493Z,59.23
2018-07-30T06:47:52.485Z,59.82
2018-07-30T06:50:19.472Z,60.02
2018-07-30T06:52:46.577Z,58.57
2018-07-30T06:55:13.550Z,56.46
2018-07-30T06:57:40.549Z,55.92
2018-07-30T07:00:09.046Z,55.61
2018-07-30T07:02:36.114Z,53.25
2018-07-30T07:05:03.177Z,52.84
2018-07-30T07:07:30.181Z,53.19
2018-07-30T07:09:57.130Z,51.13
2018-07-30T07:12:24.109Z,51.86
2018-07-30T07:14:51.096Z,50.31
2018-07-30T07:17:18.094Z,49.88
2018-07-30T07:19:45.101Z,49.59
2018-07-30T07:22:12.397Z,49.62
2018-07-30T07:24:39.374Z,48.91
2018-07-30T07:27:06.538Z,49.70
2018-07-30T07:29:33.402Z,48.67
2018-07-30T07:32:00.381Z,49.05
2018-07-30T07:34:27.341Z,49.77
2018-07-30T07:36:54.353Z,50.12
2018-07-30T07:39:21.329Z,49.92
2018-07-30T07:41:48.365Z,50.13
2018-07-30T07:44:15.349Z,50.55
2018-07-30T07:46:42.355Z,50.48
2018-07-30T07:49:09.333Z,50.56
2018-07-30T07:51:36.346Z,51.66
2018-07-30T07:54:03.341Z,51.62
2018-07-30T07:56:30.377Z,51.63
2018-07-30T07:58:57.357Z,51.28
2018-07-30T08:01:24.345Z,50.48
2018-07-30T08:03:51.450Z,50.22
2018-07-30T08:06:18.491Z,49.86
2018-07-30T08:08:45.437Z,49.93
2018-07-30T08:11:12.434Z,49.89
2018-07-30T08:13:39.418Z,50.40
2018-07-30T08:16:06.404Z,50.23
2018-07-30T08:18:33.406Z,48.20
2018-07-30T08:21:00.377Z,50.31
2018-07-30T08:23:27.389Z,50.55
2018-07-30T08:25:54.395Z,50.02
2018-07-30T08:28:21.393Z,50.11
2018-07-30T08:30:48.413Z,49.31
2018-07-30T08:33:15.429Z,49.21
2018-07-30T08:35:42.413Z,48.89
2018-07-30T08:38:09.430Z,48.24
2018-07-30T08:40:36.413Z,47.77
2018-07-30T08:43:03.369Z,48.58
2018-07-30T08:45:30.401Z,47.81
2018-07-30T08:47:57.489Z,48.04
2018-07-30T08:50:24.490Z,46.13
2018-07-30T08:52:51.485Z,45.20
2018-07-30T08:55:18.442Z,44.85
2018-07-30T08:57:45.480Z,44.74
2018-07-30T09:00:12.481Z,44.19
2018-07-30T09:02:39.473Z,43.96
2018-07-30T09:05:06.737Z,44.16
2018-07-30T09:07:33.754Z,43.71
2018-07-30T09:10:00.718Z,42.89
2018-07-30T09:12:27.772Z,43.53
2018-07-30T09:14:54.731Z,43.17
2018-07-30T09:17:21.693Z,43.53
2018-07-30T09:19:48.681Z,43.43
2018-07-30T09:22:15.661Z,42.51
2018-07-30T09:24:42.645Z,42.27
2018-07-30T09:27:09.664Z,41.87
2018-07-30T09:29:36.932Z,41.88
2018-07-30T09:32:04.291Z,41.90
2018-07-30T09:34:31.401Z,42.31
2018-07-30T09:36:58.377Z,42.20
2018-07-30T09:39:25.415Z,41.75
2018-07-30T09:41:52.393Z,41.90
2018-07-30T09:44:19.486Z,41.18
2018-07-30T09:46:46.518Z,41.44
2018-07-30T09:49:13.509Z,41.52
2018-07-30T09:51:40.477Z,40.87
2018-07-30T09:54:07.514Z,40.14
2018-07-30T09:56:34.453Z,40.34
2018-07-30T09:59:01.467Z,40.62
2018-07-30T10:01:29.549Z,40.18
2018-07-30T10:03:57.532Z,40.72
2018-07-30T10:06:24.670Z,41.00
2018-07-30T10:08:51.776Z,40.71
2018-07-30T10:11:18.940Z,40.64
2018-07-30T10:13:45.925Z,40.70
2018-07-30T10:16:12.945Z,40.47
2018-07-30T10:18:39.925Z,40.63
2018-07-30T10:21:07.069Z,40.54
2018-07-30T10:23:34.064Z,41.31
2018-07-30T10:26:01.065Z,41.12
2018-07-30T10:28:28.092Z,41.45
2018-07-30T10:30:55.085Z,41.60
2018-07-30T10:33:22.073Z,40.53
2018-07-30T10:35:49.066Z,40.82
2018-07-30T10:38:16.405Z,39.53
2018-07-30T10:40:43.446Z,40.32
2018-07-30T10:43:10.437Z,40.43
2018-07-30T10:45:37.518Z,40.57
2018-07-30T10:48:04.537Z,40.51
2018-07-30T10:50:31.557Z,40.38
2018-07-30T10:52:58.534Z,39.74
2018-07-30T10:55:25.528Z,40.54
2018-07-30T10:57:52.537Z,40.15
2018-07-30T11:00:19.525Z,39.68
2018-07-30T11:02:46.510Z,39.47
2018-07-30T11:05:13.508Z,39.67
2018-07-30T11:07:40.570Z,39.52
2018-07-30T11:10:07.593Z,39.48
2018-07-30T11:12:34.582Z,39.94
2018-07-30T11:15:01.935Z,39.80
2018-07-30T11:17:28.920Z,39.13
2018-07-30T11:19:55.905Z,39.35
2018-07-30T11:22:22.945Z,38.18
2018-07-30T11:24:49.962Z,38.24
2018-07-30T11:27:17.043Z,37.67
2018-07-30T11:29:44.060Z,37.14
2018-07-30T11:32:11.042Z,36.96
2018-07-30T11:34:38.085Z,36.98
2018-07-30T11:37:05.073Z,37.68
2018-07-30T11:39:32.066Z,38.02
2018-07-30T11:41:59.453Z,38.25
2018-07-30T11:44:26.471Z,37.36
2018-07-30T11:46:53.465Z,37.23
2018-07-30T11:49:20.560Z,37.97
2018-07-30T11:51:47.569Z,39.34
2018-07-30T11:54:14.564Z,38.88
2018-07-30T11:56:41.591Z,38.66
2018-07-30T11:59:08.705Z,38.74
2018-07-30T12:01:35.668Z,38.28
2018-07-30T12:04:02.684Z,38.30
2018-07-30T12:06:29.945Z,38.08
2018-07-30T12:08:57.318Z,39.33
2018-07-30T12:11:24.293Z,38.71
2018-07-30T12:13:51.272Z,38.83
2018-07-30T12:16:18.269Z,38.81
2018-07-30T12:18:45.249Z,39.15
2018-07-30T12:21:12.277Z,38.42
2018-07-30T12:23:39.280Z,39.79
2018-07-30T12:26:06.298Z,38.68
2018-07-30T12:28:33.267Z,38.63
2018-07-30T12:31:00.287Z,38.70
2018-07-30T12:33:27.258Z,37.99
2018-07-30T12:35:54.448Z,36.92
2018-07-30T12:38:21.416Z,37.56
2018-07-30T12:40:48.425Z,36.48
2018-07-30T12:43:15.469Z,36.34
2018-07-30T12:45:44.244Z,37.04
2018-07-30T12:48:11.464Z,36.51
2018-07-30T12:50:38.528Z,36.49
2018-07-30T12:53:05.528Z,36.43
2018-07-30T12:55:32.813Z,35.83
2018-07-30T12:57:59.795Z,36.25
2018-07-30T13:00:27.133Z,35.24
2018-07-30T13:02:54.145Z,35.53
2018-07-30T13:05:21.121Z,35.45
2018-07-30T13:07:48.089Z,35.18
2018-07-30T13:10:15.093Z,34.45
2018-07-30T13:12:42.119Z,33.85
2018-07-30T13:15:09.513Z,35.01
2018-07-30T13:17:36.538Z,34.06
2018-07-30T13:20:04.085Z,34.78
2018-07-30T13:22:31.093Z,35.32
2018-07-30T13:24:58.073Z,35.38
2018-07-30T13:27:25.074Z,35.15
2018-07-30T13:29:52.060Z,35.58
2018-07-30T13:32:19.068Z,34.61
2018-07-30T13:34:46.105Z,35.52
2018-07-30T13:37:13.109Z,35.32
2018-07-30T13:39:40.077Z,35.30
2018-07-30T13:42:07.153Z,36.44
2018-07-30T13:44:34.170Z,34.24
2018-07-30T13:47:01.181Z,35.18
2018-07-30T13:49:28.165Z,35.06
2018-07-30T13:51:55.165Z,35.59
2018-07-30T13:54:22.215Z,36.34
2018-07-30T13:56:49.202Z,36.11
2018-07-30T13:59:16.260Z,36.55
2018-07-30T14:01:43.261Z,35.49
2018-07-30T14:04:10.233Z,36.58
2018-07-30T14:06:37.338Z,36.15
2018-07-30T14:09:07.425Z,37.05
2018-07-30T14:11:34.625Z,36.27
2018-07-30T14:14:01.605Z,36.04
2018-07-30T14:16:28.587Z,36.02
2018-07-30T14:18:55.552Z,36.34
2018-07-30T14:21:22.653Z,35.98
2018-07-30T14:23:49.657Z,34.70
2018-07-30T14:26:16.809Z,35.64
2018-07-30T14:28:43.804Z,34.81
2018-07-30T14:31:10.837Z,35.67
2018-07-30T14:33:37.806Z,34.96
2018-07-30T14:36:04.841Z,36.38
2018-07-30T14:38:31.821Z,35.20
2018-07-30T14:40:58.852Z,35.09
2018-07-30T14:43:25.868Z,35.71
2018-07-30T14:45:52.908Z,35.11
2018-07-30T14:48:20.105Z,35.33
2018-07-30T14:50:47.093Z,35.70
2018-07-30T14:53:14.113Z,35.63
2018-07-30T14:55:41.118Z,35.51
2018-07-30T14:58:08.117Z,36.62
2018-07-30T15:00:35.099Z,35.36
2018-07-30T15:03:02.085Z,36.94
2018-07-30T15:05:29.081Z,35.38
2018-07-30T15:07:56.069Z,36.13
2018-07-30T15:10:23.056Z,36.53
2018-07-30T15:12:50.366Z,35.41
2018-07-30T15:15:17.328Z,36.29
2018-07-30T15:17:44.428Z,35.38
2018-07-30T15:20:11.478Z,35.76
2018-07-30T15:22:38.509Z,36.68
2018-07-30T15:25:05.873Z,35.34
2018-07-30T15:27:32.969Z,35.07
2018-07-30T15:30:00.080Z,35.93
2018-07-30T15:32:27.673Z,35.26
2018-07-30T15:34:54.786Z,35.35
2018-07-30T15:37:21.778Z,36.16
2018-07-30T15:39:49.281Z,35.98
2018-07-30T15:42:16.345Z,36.28
2018-07-30T15:44:43.328Z,35.92
2018-07-30T15:47:10.516Z,35.66
2018-07-30T15:49:37.493Z,35.03
2018-07-30T15:52:04.548Z,35.20
2018-07-30T15:54:31.541Z,35.01
2018-07-30T15:56:58.561Z,35.91
2018-07-30T15:59:25.537Z,35.73
2018-07-30T16:01:52.559Z,35.49
2018-07-30T16:04:19.548Z,34.56
2018-07-30T16:06:46.676Z,35.14
2018-07-30T16:09:13.656Z,34.82
2018-07-30T16:11:40.663Z,35.01
2018-07-30T16:14:07.660Z,34.48
2018-07-30T16:16:34.662Z,35.49
2018-07-30T16:19:01.787Z,35.40
2018-07-30T16:21:28.873Z,35.70
2018-07-30T16:23:55.922Z,35.81
2018-07-30T16:26:22.906Z,36.34
2018-07-30T16:28:49.905Z,36.31
2018-07-30T16:31:16.902Z,35.74
2018-07-30T16:33:43.913Z,36.15
2018-07-30T16:36:10.945Z,36.47
2018-07-30T16:38:37.933Z,35.99
2018-07-30T16:41:05.063Z,36.83
2018-07-30T16:43:32.237Z,36.39
2018-07-30T16:45:59.229Z,36.58
2018-07-30T16:48:26.444Z,35.97
2018-07-30T16:50:54.269Z,36.04
2018-07-30T16:53:21.321Z,35.84
2018-07-30T16:55:48.904Z,36.47
2018-07-30T16:58:16.185Z,36.16
2018-07-30T17:00:43.174Z,35.62
2018-07-30T17:03:10.220Z,35.52
2018-07-30T17:05:37.216Z,36.55
2018-07-30T17:08:04.792Z,36.98
2018-07-30T17:10:31.777Z,37.22
2018-07-30T17:12:58.780Z,37.35
2018-07-30T17:15:25.780Z,38.01
2018-07-30T17:17:52.775Z,37.40
2018-07-30T17:20:19.769Z,36.74
2018-07-30T17:22:46.777Z,37.58
2018-07-30T17:25:13.799Z,37.70
2018-07-30T17:27:40.798Z,37.63
2018-07-30T17:30:08.956Z,38.00
2018-07-30T17:32:35.929Z,38.68
2018-07-30T17:35:03.021Z,38.81
2018-07-30T17:37:30.022Z,38.64
2018-07-30T17:39:57.023Z,38.67
2018-07-30T17:42:24.049Z,38.79
2018-07-30T17:44:51.280Z,38.52
2018-07-30T17:47:18.370Z,38.18
2018-07-30T17:49:45.385Z,38.30
2018-07-30T17:52:12.361Z,38.19
2018-07-30T17:54:39.377Z,38.30
2018-07-30T17:57:06.369Z,38.75
2018-07-30T17:59:33.605Z,38.84
2018-07-30T18:02:00.751Z,38.95
2018-07-30T18:04:27.745Z,38.71
2018-07-30T18:06:54.725Z,38.58
2018-07-30T18:09:21.879Z,38.71
2018-07-30T18:11:48.869Z,38.28
2018-07-30T18:14:16.001Z,38.69
2018-07-30T18:16:43.003Z,38.65
2018-07-30T18:19:10.089Z,38.81
2018-07-30T18:21:37.085Z,39.05
2018-07-30T18:24:04.184Z,38.85
2018-07-30T18:26:31.176Z,39.36
2018-07-30T18:28:58.193Z,39.32
2018-07-30T18:31:25.208Z,39.65
2018-07-30T18:33:52.210Z,39.54
2018-07-30T18:36:19.191Z,39.60
2018-07-30T18:38:46.205Z,39.71
2018-07-30T18:41:13.605Z,39.92
2018-07-30T18:43:40.790Z,40.32
2018-07-30T18:46:07.805Z,40.78
2018-07-30T18:48:34.802Z,40.81
2018-07-30T18:51:01.821Z,41.74
2018-07-30T18:53:28.801Z,41.86
2018-07-30T18:55:55.829Z,42.84
2018-07-30T18:58:22.841Z,42.45
2018-07-30T19:00:49.897Z,42.45
2018-07-30T19:03:17.024Z,42.94
2018-07-30T19:05:44.029Z,43.14
2018-07-30T19:08:11.026Z,43.37
2018-07-30T19:10:38.052Z,43.54
2018-07-30T19:13:05.025Z,43.89
2018-07-30T19:15:32.041Z,44.57
2018-07-30T19:17:59.109Z,45.25
2018-07-30T19:20:26.155Z,45.38
2018-07-30T19:22:53.228Z,45.32
2018-07-30T19:25:20.261Z,45.39
2018-07-30T19:27:47.237Z,45.77
2018-07-30T19:30:14.253Z,45.81
2018-07-30T19:32:41.312Z,45.92
2018-07-30T19:35:08.485Z,45.86
2018-07-30T19:37:35.714Z,45.92
2018-07-30T19:40:03.046Z,46.26
2018-07-30T19:42:30.241Z,46.26
2018-07-30T19:44:57.472Z,46.33
2018-07-30T19:47:24.570Z,46.30
2018-07-30T19:49:51.561Z,46.63
2018-07-30T19:52:18.605Z,46.80
2018-07-30T19:54:45.781Z,46.48
2018-07-30T19:57:12.920Z,46.57
2018-07-30T19:59:39.909Z,46.78
2018-07-30T20:02:06.985Z,46.91
2018-07-30T20:04:34.024Z,47.43
2018-07-30T20:07:01.100Z,47.36
2018-07-30T20:09:28.027Z,47.58
2018-07-30T20:11:55.057Z,47.68
2018-07-30T20:14:22.033Z,47.79
2018-07-30T20:16:49.065Z,48.33
2018-07-30T20:19:16.081Z,48.15
2018-07-30T20:21:43.103Z,48.07
2018-07-30T20:24:10.085Z,48.14
2018-07-30T20:26:37.134Z,48.33
2018-07-30T20:29:04.261Z,48.81
2018-07-30T20:31:31.332Z,48.89
2018-07-30T20:33:58.745Z,49.23
2018-07-30T20:36:25.761Z,49.27
2018-07-30T20:38:53.297Z,49.64
2018-07-30T20:41:20.589Z,49.82
2018-07-30T20:43:47.834Z,48.60
2018-07-30T20:46:14.831Z,48.52
2018-07-30T20:48:41.956Z,48.50
2018-07-30T20:51:08.981Z,48.49
2018-07-30T20:53:36.161Z,48.79
2018-07-30T20:56:03.286Z,48.21
2018-07-30T20:58:30.309Z,48.95
2018-07-30T21:00:57.337Z,48.91
2018-07-30T21:03:24.317Z,49.12
2018-07-30T21:05:51.353Z,49.41
2018-07-30T21:08:18.366Z,49.72
2018-07-30T21:10:45.917Z,49.89
2018-07-30T21:13:14.359Z,50.29
2018-07-30T21:15:41.517Z,50.33
2018-07-30T21:18:08.569Z,50.74
2018-07-30T21:20:35.565Z,50.82
2018-07-30T21:23:02.977Z,51.03
2018-07-30T21:25:30.200Z,51.54
2018-07-30T21:27:57.412Z,50.76
2018-07-30T21:30:24.583Z,51.73
2018-07-30T21:32:51.574Z,52.42
2018-07-30T21:35:18.573Z,51.94
2018-07-30T21:37:45.577Z,52.11
2018-07-30T21:40:12.553Z,52.06
2018-07-30T21:42:39.571Z,52.79
2018-07-30T21:45:06.584Z,52.55
2018-07-30T21:47:33.614Z,53.58
2018-07-30T21:50:00.614Z,53.32
2018-07-30T21:52:27.689Z,52.88
2018-07-30T21:54:54.701Z,53.92
2018-07-30T21:57:21.793Z,53.34
2018-07-30T21:59:49.548Z,53.46
2018-07-30T22:02:16.593Z,54.19
2018-07-30T22:04:43.563Z,54.07
2018-07-30T22:07:10.618Z,54.71
2018-07-30T22:09:37.598Z,55.07
2018-07-30T22:12:04.664Z,55.15
2018-07-30T22:14:31.658Z,54.80
2018-07-30T22:16:58.673Z,55.53
2018-07-30T22:19:25.695Z,55.48
2018-07-30T22:21:53.053Z,55.50
2018-07-30T22:24:20.085Z,55.89
2018-07-30T22:26:47.186Z,56.89
2018-07-30T22:29:14.193Z,57.08
2018-07-30T22:31:41.337Z,57.08
2018-07-30T22:34:08.353Z,57.37
2018-07-30T22:36:35.341Z,57.63
2018-07-30T22:39:02.369Z,57.82
2018-07-30T22:41:29.437Z,57.82
2018-07-30T22:43:56.433Z,57.62
2018-07-30T22:46:23.436Z,57.70
2018-07-30T22:48:50.481Z,58.53
2018-07-30T22:51:17.465Z,58.02
2018-07-30T22:53:44.480Z,58.31
2018-07-30T22:56:11.456Z,58.42
2018-07-30T22:58:38.453Z,59.06
2018-07-30T23:01:05.544Z,59.08
2018-07-30T23:03:32.553Z,59.22
2018-07-30T23:05:59.548Z,58.82
2018-07-30T23:08:26.537Z,58.95
2018-07-30T23:10:53.529Z,59.09
2018-07-30T23:13:20.560Z,59.04
2018-07-30T23:15:47.549Z,59.93
2018-07-30T23:18:14.573Z,60.23
2018-07-30T23:20:41.640Z,59.59
2018-07-30T23:23:08.661Z,59.90
2018-07-30T23:25:35.665Z,60.13
2018-07-30T23:28:02.739Z,60.03
2018-07-30T23:30:29.725Z,60.13
2018-07-30T23:32:56.726Z,60.09
2018-07-30T23:35:23.698Z,60.80
2018-07-30T23:37:50.706Z,60.32
2018-07-30T23:40:17.681Z,60.96
2018-07-30T23:42:44.713Z,60.23
2018-07-30T23:45:11.686Z,60.20
2018-07-30T23:47:38.664Z,61.17
2018-07-30T23:50:05.685Z,61.42
2018-07-30T23:52:32.730Z,60.96
2018-07-30T23:54:59.782Z,60.95
2018-07-30T23:57:26.729Z,61.34
2018-07-30T23:59:54.306Z,61.84
